Overview Statistics Trail Chart Weather Telemetry Raw packets
 

This is the latest recevied weather packets stored in our database for station/object K7MT-WX. If no packets are shown the sender has not sent any weather packets the latest 10 day(s).

<< 18 19 20 21 22 23 24 >>
Time Temp. Humidity Pressure Rain* Wind** Luminosity Snow
1788186815 8.89° C 72% 1019 hPa 0 mm - - -
1788185915 8.33° C 75% 1018.9 hPa 0 mm - - -
1788185015 7.22° C 79% 1018.7 hPa 0 mm - - -
1788184115 6.67° C 80% 1018.6 hPa 0 mm - - -
1788183219 5.56° C 82% 1018.5 hPa 0 mm - - -
1788182315 5.56° C 81% 1018.4 hPa 0 mm - - -
1788181414 6.11° C 79% 1018.3 hPa 0 mm - - -
1788180514 6.11° C 79% 1018.2 hPa 0 mm - - -
1788179614 6.11° C 78% 1018 hPa 0 mm - - -
1788178714 6.67° C 76% 1017.9 hPa 0 mm - - -
1788177814 7.22° C 74% 1017.8 hPa 0 mm - - -
1788176914 7.78° C 71% 1017.7 hPa 0 mm - - -
1788176014 8.33° C 68% 1017.6 hPa 0 mm - - -
1788175114 8.33° C 68% 1017.5 hPa 0 mm - - -
1788174214 7.78° C 73% 1017.5 hPa 0 mm - - -
1788173284 7.78° C 73% 1017.5 hPa 0 mm - - -
1788172384 8.33° C 72% 1017.5 hPa 0 mm - - -
1788171484 8.89° C 69% 1017.5 hPa 0 mm - - -
1788170585 9.44° C 67% 1017.5 hPa 0 mm - - -
1788169684 9.44° C 67% 1017.5 hPa 0 mm - - -
1788168784 10° C 67% 1017.4 hPa 0 mm - - -
1788167884 11.67° C 57% 1017.2 hPa 0 mm - - -
1788167000 11.67° C 55% 1017.1 hPa 0 mm - - -
1788166084 10.56° C 61% 1017.2 hPa 0 mm - - -
1788165184 9.44° C 61% 1017.2 hPa 0 mm - - -

* Rain latest hour (hover to see other rain measurements)
** Current wind speed in m/s (hover to see current wind gust speed)